Time;durP1;ratioP1;P1;durP2;ratioP2;P2;SDS_P1;SDS_P2;PMS_P1;PMS_P2;Temp;Humidity;BMP_temperature;BMP_pressure;BME280_temperature;BME280_humidity;BME280_pressure;Samples;Min_cycle;Max_cycle;Signal;HPM_P1;HPM_P2
2021/01/17 00:01:25;;;;;;;30.42;21.33;;;2.90;1.00;;;;;;5115044;28;20020;-90
2021/01/17 00:03:51;;;;;;;29.30;19.73;;;2.60;1.00;;;;;;5111769;28;20495;-90
2021/01/17 00:06:16;;;;;;;31.45;20.85;;;2.90;1.00;;;;;;5102257;28;20034;-90
2021/01/17 00:08:42;;;;;;;29.45;20.02;;;2.90;1.00;;;;;;5094060;28;20024;-90
2021/01/17 00:11:12;;;;;;;27.83;20.00;;;3.40;1.00;;;;;;5094112;28;20028;-90
2021/01/17 00:13:37;;;;;;;29.80;20.85;;;3.10;1.00;;;;;;5094290;28;20027;-90
2021/01/17 00:16:03;;;;;;;31.60;21.20;;;3.30;1.00;;;;;;5094540;28;20031;-90
2021/01/17 00:18:29;;;;;;;31.60;21.77;;;2.70;1.00;;;;;;5100598;28;20058;-90
2021/01/17 00:20:54;;;;;;;30.55;21.20;;;2.80;1.00;;;;;;5113194;28;20530;-90
2021/01/17 00:23:20;;;;;;;31.20;22.25;;;3.20;1.00;;;;;;5114349;28;20118;-90
2021/01/17 00:25:46;;;;;;;33.65;23.33;;;3.10;1.00;;;;;;5114489;28;20084;-90
2021/01/17 00:28:12;;;;;;;30.15;21.20;;;3.20;1.00;;;;;;5114475;28;20106;-90
2021/01/17 00:30:37;;;;;;;28.50;20.80;;;3.20;1.00;;;;;;5114317;28;20034;-90
2021/01/17 00:33:05;;;;;;;31.38;20.83;;;3.20;1.00;;;;;;5111725;28;20024;-90
2021/01/17 00:35:33;;;;;;;31.67;21.70;;;3.30;1.00;;;;;;5107258;28;20397;-90
2021/01/17 00:38:01;;;;;;;27.95;20.67;;;3.70;1.00;;;;;;5093628;28;20020;-90
2021/01/17 00:40:27;;;;;;;32.28;22.50;;;3.20;1.00;;;;;;5093467;28;20128;-90
2021/01/17 00:42:54;;;;;;;30.20;21.88;;;3.30;1.00;;;;;;5093095;28;20111;-90
2021/01/17 00:45:21;;;;;;;26.13;19.30;;;3.60;1.00;;;;;;5092715;28;20024;-90
2021/01/17 00:47:48;;;;;;;28.63;21.13;;;3.60;1.00;;;;;;5092688;28;20028;-90
2021/01/17 00:50:17;;;;;;;26.42;19.63;;;3.60;1.00;;;;;;5093461;28;20024;-90
2021/01/17 00:52:43;;;;;;;26.40;19.08;;;3.50;1.00;;;;;;5093055;28;20115;-90
2021/01/17 00:55:09;;;;;;;26.98;19.30;;;3.30;1.00;;;;;;5095470;28;20099;-90
2021/01/17 00:57:35;;;;;;;27.55;19.67;;;3.30;1.00;;;;;;5113962;28;20020;-90
2021/01/17 01:00:04;;;;;;;27.60;20.20;;;3.50;1.00;;;;;;5114098;28;20111;-91
2021/01/17 01:02:30;;;;;;;27.08;19.55;;;3.20;1.00;;;;;;5110988;28;20027;-91
2021/01/17 01:04:55;;;;;;;29.58;20.33;;;3.60;1.00;;;;;;5093291;28;20038;-90
2021/01/17 01:07:21;;;;;;;27.25;20.33;;;3.70;1.00;;;;;;5093067;28;20032;-91
2021/01/17 01:09:46;;;;;;;29.90;20.33;;;3.80;1.00;;;;;;5093208;28;20066;-91
2021/01/17 01:12:13;;;;;;;28.60;20.08;;;3.60;1.00;;;;;;5093116;28;20055;-91
2021/01/17 01:14:39;;;;;;;31.38;21.65;;;3.20;1.00;;;;;;5093237;28;20555;-91
2021/01/17 01:17:05;;;;;;;29.77;22.30;;;3.60;1.00;;;;;;5092732;28;20024;-91
2021/01/17 01:19:30;;;;;;;29.48;21.85;;;2.80;1.00;;;;;;5111583;28;20031;-91
2021/01/17 01:21:56;;;;;;;29.63;22.42;;;3.30;1.00;;;;;;5113024;28;20060;-91
2021/01/17 01:24:21;;;;;;;32.30;22.33;;;2.80;1.00;;;;;;5112662;28;20385;-91
2021/01/17 01:26:47;;;;;;;31.15;22.50;;;3.20;1.00;;;;;;5096288;28;20024;-91
2021/01/17 01:29:13;;;;;;;30.73;22.35;;;2.70;1.00;;;;;;5092724;28;20035;-91
2021/01/17 01:31:40;;;;;;;33.13;23.00;;;2.80;1.00;;;;;;5093119;28;20028;-91
2021/01/17 01:34:06;;;;;;;29.70;21.70;;;2.80;1.00;;;;;;5092401;28;20086;-91
2021/01/17 01:36:35;;;;;;;31.83;22.63;;;3.10;1.00;;;;;;5092299;28;20028;-91
2021/01/17 01:39:01;;;;;;;34.53;24.73;;;3.50;1.00;;;;;;5102357;28;20051;-91
2021/01/17 01:41:28;;;;;;;34.20;24.30;;;3.30;1.00;;;;;;5113040;28;20115;-91
2021/01/17 01:43:56;;;;;;;35.38;24.83;;;3.50;1.00;;;;;;5092736;28;20120;-91
2021/01/17 01:46:23;;;;;;;32.67;23.08;;;3.20;1.00;;;;;;5112893;28;20103;-91
2021/01/17 01:48:50;;;;;;;30.63;22.67;;;3.60;1.00;;;;;;5113050;28;20028;-91
2021/01/17 01:51:17;;;;;;;33.80;23.42;;;3.50;1.00;;;;;;5112725;28;20051;-91
2021/01/17 01:53:43;;;;;;;32.45;21.80;;;3.40;1.00;;;;;;5108511;28;20062;-91
2021/01/17 01:56:09;;;;;;;32.85;23.55;;;3.50;1.00;;;;;;5112174;28;20055;-91
2021/01/17 01:58:37;;;;;;;32.45;23.83;;;3.70;1.00;;;;;;5112892;28;20081;-91
2021/01/17 02:01:06;;;;;;;34.47;23.98;;;3.50;1.00;;;;;;5112781;28;20030;-91
2021/01/17 02:03:32;;;;;;;33.53;22.70;;;3.40;1.00;;;;;;5112610;28;20058;-91
2021/01/17 02:05:59;;;;;;;31.67;22.33;;;3.40;1.00;;;;;;5112611;28;20045;-91
2021/01/17 02:08:43;;;;;;;31.08;21.80;;;3.90;1.00;;;;;;5106515;28;20024;-91
2021/01/17 02:11:20;;;;;;;30.35;22.13;;;3.60;1.00;;;;;;5112622;28;20016;-91
2021/01/17 02:13:54;;;;;;;32.10;22.75;;;3.60;1.00;;;;;;5112760;28;20080;-91
2021/01/17 02:16:21;;;;;;;30.65;22.00;;;3.80;1.00;;;;;;5112196;28;20088;-91
2021/01/17 02:18:50;;;;;;;33.92;23.17;;;3.60;1.00;;;;;;5112710;28;20023;-91
2021/01/17 02:21:16;;;;;;;33.13;22.88;;;4.00;1.00;;;;;;5112261;28;20076;-91
2021/01/17 02:23:52;;;;;;;32.60;23.50;;;4.00;1.00;;;;;;5102013;28;20036;-91
2021/01/17 02:26:18;;;;;;;35.17;23.80;;;3.60;1.00;;;;;;5094901;28;20507;-90
2021/01/17 02:28:45;;;;;;;30.70;21.55;;;3.80;1.00;;;;;;5091848;28;20119;-90
2021/01/17 02:31:11;;;;;;;29.50;20.77;;;3.60;1.00;;;;;;5091882;28;20031;-91
2021/01/17 02:33:40;;;;;;;29.02;19.98;;;3.70;1.00;;;;;;5091933;28;20087;-91
2021/01/17 02:36:31;;;;;;;30.38;21.02;;;3.80;1.00;;;;;;5092002;28;20017;-91
2021/01/17 02:39:17;;;;;;;27.50;19.50;;;3.90;1.00;;;;;;5091470;28;20059;-91
2021/01/17 02:42:03;;;;;;;30.40;21.25;;;3.80;1.00;;;;;;5092084;28;20036;-91
2021/01/17 02:44:31;;;;;;;28.83;20.77;;;3.80;1.00;;;;;;5089177;28;20055;-91
2021/01/17 02:46:57;;;;;;;30.80;22.83;;;4.00;1.00;;;;;;5093371;28;20020;-91
2021/01/17 02:49:23;;;;;;;29.13;21.15;;;3.80;1.00;;;;;;5091659;28;20043;-91
2021/01/17 02:51:50;;;;;;;29.52;21.55;;;3.70;1.00;;;;;;5091776;28;20077;-91
2021/01/17 02:54:30;;;;;;;28.27;20.45;;;4.10;1.00;;;;;;5104477;28;20485;-91
2021/01/17 02:57:06;;;;;;;27.60;19.92;;;3.70;1.00;;;;;;5111981;28;20019;-91
2021/01/17 02:59:42;;;;;;;26.25;18.95;;;3.70;1.00;;;;;;5112437;28;20024;-91
2021/01/17 03:02:09;;;;;;;26.13;19.63;;;3.80;1.00;;;;;;5112088;28;20023;-91
2021/01/17 03:04:40;;;;;;;26.80;19.13;;;3.80;1.00;;;;;;5111804;28;20052;-91
2021/01/17 03:07:09;;;;;;;30.67;21.75;;;3.80;1.00;;;;;;5112284;28;20393;-91
2021/01/17 03:09:36;;;;;;;29.67;21.23;;;3.80;1.00;;;;;;5093842;28;20114;-91
2021/01/17 03:12:03;;;;;;;30.35;21.40;;;4.10;1.00;;;;;;5095522;28;20115;-91
2021/01/17 03:14:36;;;;;;;28.42;20.85;;;3.70;1.00;;;;;;5095783;28;20030;-92
2021/01/17 03:17:08;;;;;;;30.63;21.35;;;3.60;1.00;;;;;;5095084;28;20595;-91
2021/01/17 03:19:34;;;;;;;29.42;20.60;;;3.80;1.00;;;;;;5095525;28;20024;-91
2021/01/17 03:21:59;;;;;;;30.70;21.15;;;4.00;1.00;;;;;;5094637;28;20028;-91
2021/01/17 03:24:25;;;;;;;30.70;20.88;;;4.00;1.00;;;;;;5104964;28;20032;-91
2021/01/17 03:26:51;;;;;;;31.33;21.63;;;4.00;1.00;;;;;;5095672;28;20485;-91
2021/01/17 03:29:17;;;;;;;31.25;21.92;;;3.80;1.00;;;;;;5095291;28;20028;-91
2021/01/17 03:31:43;;;;;;;30.85;21.67;;;3.70;1.00;;;;;;5094834;28;20035;-91
2021/01/17 03:34:08;;;;;;;33.22;21.40;;;3.90;1.00;;;;;;5095354;28;20444;-91
2021/01/17 03:36:34;;;;;;;33.08;22.65;;;4.00;1.00;;;;;;5095135;28;20080;-91
2021/01/17 03:39:00;;;;;;;32.53;22.13;;;4.00;1.00;;;;;;5095566;28;20048;-91
2021/01/17 03:41:25;;;;;;;30.80;21.90;;;4.00;1.00;;;;;;5094737;28;20020;-92
2021/01/17 03:43:51;;;;;;;34.05;23.38;;;3.70;1.00;;;;;;5094979;28;20052;-91
2021/01/17 03:46:17;;;;;;;33.92;23.38;;;4.00;1.00;;;;;;5094897;28;20181;-91
2021/01/17 03:48:43;;;;;;;28.80;20.80;;;3.70;1.00;;;;;;5094937;28;20426;-92
2021/01/17 03:51:09;;;;;;;29.48;20.67;;;3.80;1.00;;;;;;5094486;28;20417;-92
2021/01/17 03:53:34;;;;;;;26.42;19.48;;;3.90;1.00;;;;;;5095598;28;20025;-92
2021/01/17 03:56:00;;;;;;;27.73;18.50;;;4.00;1.00;;;;;;5103841;28;20024;-92
2021/01/17 03:58:26;;;;;;;25.98;19.10;;;3.90;1.00;;;;;;5115459;28;20032;-92
2021/01/17 04:00:51;;;;;;;28.40;20.23;;;4.20;1.00;;;;;;5114529;28;20020;-92
2021/01/17 04:03:17;;;;;;;30.73;22.55;;;3.90;1.00;;;;;;5114420;28;20032;-92
2021/01/17 04:05:43;;;;;;;32.47;23.42;;;3.80;1.00;;;;;;5114702;28;20034;-92
2021/01/17 04:08:08;;;;;;;36.58;25.05;;;4.00;1.00;;;;;;5103707;28;20024;-92
2021/01/17 04:10:34;;;;;;;33.72;23.20;;;3.80;1.00;;;;;;5094543;28;20028;-92
2021/01/17 04:12:59;;;;;;;30.83;22.55;;;4.00;1.00;;;;;;5094467;28;20085;-92
2021/01/17 04:15:25;;;;;;;30.85;21.35;;;3.80;1.00;;;;;;5094080;28;20432;-92
2021/01/17 04:17:51;;;;;;;30.50;21.38;;;3.90;1.00;;;;;;5094405;28;20038;-92
2021/01/17 04:20:17;;;;;;;30.92;20.88;;;4.00;1.00;;;;;;5092826;28;20024;-92
2021/01/17 04:22:42;;;;;;;28.23;19.85;;;4.10;1.00;;;;;;5096979;28;20110;-92
2021/01/17 04:25:09;;;;;;;25.27;18.15;;;4.00;1.00;;;;;;5094108;28;20063;-92
2021/01/17 04:27:35;;;;;;;25.05;18.52;;;3.80;1.00;;;;;;5094067;28;20035;-93
2021/01/17 04:30:00;;;;;;;23.80;17.17;;;3.90;1.00;;;;;;5093745;28;20028;-92
2021/01/17 04:32:26;;;;;;;24.52;17.05;;;3.90;1.00;;;;;;5093978;28;20024;-92
2021/01/17 04:34:52;;;;;;;23.52;16.05;;;3.90;1.00;;;;;;5094034;28;20107;-93
2021/01/17 04:37:22;;;;;;;24.38;16.77;;;3.90;1.00;;;;;;5093097;28;20027;-93
2021/01/17 04:39:48;;;;;;;24.77;17.42;;;3.90;1.00;;;;;;5093813;28;20044;-93
2021/01/17 04:42:17;;;;;;;21.42;16.40;;;3.90;1.00;;;;;;5093957;28;20028;-92
2021/01/17 04:44:50;;;;;;;23.17;17.10;;;3.90;1.00;;;;;;5093665;28;20032;-92
2021/01/17 04:47:19;;;;;;;22.17;17.08;;;3.90;1.00;;;;;;5093847;28;20020;-93
2021/01/17 04:49:48;;;;;;;23.25;16.45;;;3.90;1.00;;;;;;5093701;28;20020;-92
2021/01/17 04:52:14;;;;;;;23.88;17.30;;;4.30;1.00;;;;;;5098347;28;20077;-91
2021/01/17 04:54:41;;;;;;;21.42;16.58;;;4.20;1.00;;;;;;5113738;28;20032;-93
2021/01/17 04:57:26;;;;;;;23.42;16.50;;;3.90;1.00;;;;;;5113687;28;20028;-92
2021/01/17 05:00:07;;;;;;;23.48;17.55;;;3.90;1.00;;;;;;5113655;28;20023;-92
2021/01/17 05:02:51;;;;;;;25.10;17.80;;;4.00;1.00;;;;;;5114021;28;20032;-92
2021/01/17 05:05:24;;;;;;;24.67;17.45;;;3.80;1.00;;;;;;5113896;28;20063;-92
2021/01/17 05:07:58;;;;;;;22.52;16.48;;;3.80;1.00;;;;;;5112210;28;20065;-93
2021/01/17 05:10:38;;;;;;;24.45;17.15;;;3.70;1.00;;;;;;5114041;28;20389;-92
2021/01/17 05:13:09;;;;;;;22.42;16.00;;;3.80;1.00;;;;;;5113493;27;20023;-92
2021/01/17 05:15:41;;;;;;;23.30;16.02;;;3.90;1.00;;;;;;5113642;28;20016;-92
2021/01/17 05:18:07;;;;;;;20.35;15.60;;;4.50;1.00;;;;;;5113526;28;20022;-92
2021/01/17 05:20:33;;;;;;;22.92;15.75;;;3.90;1.00;;;;;;5111699;28;20028;-93
2021/01/17 05:23:00;;;;;;;22.08;16.33;;;4.40;1.00;;;;;;5108705;28;20076;-92
2021/01/17 05:25:29;;;;;;;21.65;15.60;;;4.10;1.00;;;;;;5113745;28;20037;-93
2021/01/17 05:27:58;;;;;;;20.48;14.73;;;3.90;1.00;;;;;;5113199;28;20023;-93
2021/01/17 05:30:24;;;;;;;21.67;15.23;;;4.00;1.00;;;;;;5113337;28;20028;-92
2021/01/17 05:32:52;;;;;;;19.98;15.23;;;4.00;1.00;;;;;;5112697;28;20030;-92
2021/01/17 05:35:23;;;;;;;19.30;13.82;;;3.90;1.00;;;;;;5112008;28;20034;-93
2021/01/17 05:37:54;;;;;;;18.65;13.57;;;4.20;1.00;;;;;;5093006;28;20076;-92
2021/01/17 05:40:22;;;;;;;17.60;13.27;;;4.00;1.00;;;;;;5092963;28;20054;-92
2021/01/17 05:42:49;;;;;;;16.90;12.82;;;4.00;1.00;;;;;;5092612;28;20500;-93
2021/01/17 05:45:16;;;;;;;18.40;12.68;;;3.90;1.00;;;;;;5093056;28;20114;-93
2021/01/17 05:47:55;;;;;;;15.32;12.10;;;3.90;1.00;;;;;;5092909;28;20028;-93
2021/01/17 05:50:21;;;;;;;16.75;12.60;;;3.90;1.00;;;;;;5093070;28;20059;-93
2021/01/17 05:52:54;;;;;;;22.45;14.93;;;4.20;1.00;;;;;;5111873;28;20043;-92
2021/01/17 05:55:31;;;;;;;24.33;15.77;;;4.10;1.00;;;;;;5116714;27;20106;-92
2021/01/17 05:58:32;;;;;;;23.08;16.02;;;4.30;1.00;;;;;;5133070;27;20051;-92
2021/01/17 06:01:14;;;;;;;22.33;15.88;;;3.90;1.00;;;;;;5133725;27;20015;-93
2021/01/17 06:03:51;;;;;;;23.23;15.70;;;4.00;1.00;;;;;;5133362;27;20015;-93
2021/01/17 06:06:28;;;;;;;18.95;13.68;;;3.90;1.00;;;;;;5107047;27;20055;-93
2021/01/17 06:08:55;;;;;;;17.13;12.88;;;3.90;1.00;;;;;;5092460;28;20157;-92
2021/01/17 06:11:24;;;;;;;15.80;11.73;;;3.80;1.00;;;;;;5092265;28;20036;-92
2021/01/17 06:14:23;;;;;;;15.77;12.10;;;3.90;1.00;;;;;;5092489;28;20020;-92
2021/01/17 06:16:50;;;;;;;14.20;11.77;;;4.10;1.00;;;;;;5093277;28;20555;-92
2021/01/17 06:19:16;;;;;;;17.52;12.77;;;4.20;1.00;;;;;;5091890;28;20089;-92
2021/01/17 06:21:47;;;;;;;17.48;12.95;;;4.20;1.00;;;;;;5095358;28;20040;-92
2021/01/17 06:24:13;;;;;;;15.43;11.52;;;4.30;1.00;;;;;;5092445;28;20020;-92
2021/01/17 06:26:40;;;;;;;15.43;11.57;;;4.00;1.00;;;;;;5092079;28;20020;-92
2021/01/17 06:29:10;;;;;;;15.32;11.68;;;4.00;1.00;;;;;;5091971;28;20028;-92
2021/01/17 06:31:37;;;;;;;14.77;11.27;;;3.90;1.00;;;;;;5093096;28;20031;-93
2021/01/17 06:34:04;;;;;;;14.63;11.07;;;4.10;1.00;;;;;;5092113;28;20090;-92
2021/01/17 06:36:30;;;;;;;15.18;11.55;;;4.00;1.00;;;;;;5092797;28;20370;-92
2021/01/17 06:38:56;;;;;;;15.48;11.32;;;3.90;1.00;;;;;;5099520;28;21636;-92
2021/01/17 06:41:40;;;;;;;15.40;11.88;;;3.90;1.00;;;;;;5112111;28;20119;-92
2021/01/17 06:44:13;;;;;;;16.00;12.18;;;4.20;1.00;;;;;;5114040;28;20026;-92
2021/01/17 06:46:45;;;;;;;16.70;11.65;;;4.40;1.00;;;;;;5116696;28;20377;-92
2021/01/17 06:49:15;;;;;;;15.95;11.68;;;3.90;1.00;;;;;;5116603;28;20084;-92
2021/01/17 06:51:42;;;;;;;19.25;12.82;;;4.10;1.00;;;;;;5116471;28;20059;-92
2021/01/17 06:54:08;;;;;;;16.02;12.45;;;4.40;1.00;;;;;;5102512;28;20030;-92
2021/01/17 06:56:34;;;;;;;17.33;12.60;;;3.90;1.00;;;;;;5109822;28;20023;-92
2021/01/17 06:59:00;;;;;;;16.83;12.02;;;4.00;1.00;;;;;;5116208;28;20508;-92
2021/01/17 07:01:29;;;;;;;15.90;11.65;;;4.00;1.00;;;;;;5116404;28;20023;-92
2021/01/17 07:04:13;;;;;;;17.15;12.48;;;4.00;1.00;;;;;;5116246;28;20110;-92
2021/01/17 07:06:57;;;;;;;17.15;12.48;;;4.00;1.00;;;;;;5116516;28;20027;-92
2021/01/17 07:09:40;;;;;;;18.40;13.02;;;3.90;1.00;;;;;;5100709;28;20032;-92
2021/01/17 07:12:09;;;;;;;16.70;13.07;;;4.30;1.00;;;;;;5095444;28;20115;-92
2021/01/17 07:14:40;;;;;;;17.92;13.38;;;4.10;1.00;;;;;;5095915;28;20048;-92
2021/01/17 07:17:08;;;;;;;16.58;12.60;;;4.00;1.00;;;;;;5095249;28;20464;-92
2021/01/17 07:19:39;;;;;;;15.75;12.40;;;4.30;1.00;;;;;;5095622;28;20049;-92
2021/01/17 07:22:06;;;;;;;16.45;12.52;;;3.90;1.00;;;;;;5094990;28;20032;-92
2021/01/17 07:24:33;;;;;;;16.92;12.05;;;4.00;1.00;;;;;;5095402;28;20379;-92
2021/01/17 07:27:15;;;;;;;16.38;12.35;;;4.10;1.00;;;;;;5095486;28;20032;-92
2021/01/17 07:29:42;;;;;;;17.90;12.90;;;4.10;1.00;;;;;;5095312;28;20020;-92
2021/01/17 07:32:36;;;;;;;17.77;12.75;;;4.20;1.00;;;;;;5094771;28;20036;-92
2021/01/17 07:35:11;;;;;;;17.77;12.50;;;4.00;1.00;;;;;;5095545;28;20034;-92
2021/01/17 07:37:43;;;;;;;19.85;12.88;;;3.90;1.00;;;;;;5098233;28;20054;-92
2021/01/17 07:40:09;;;;;;;18.70;12.65;;;3.80;1.00;;;;;;5094856;28;20036;-92
2021/01/17 07:42:37;;;;;;;19.77;13.05;;;3.80;1.00;;;;;;5094614;28;20032;-93
2021/01/17 07:45:18;;;;;;;17.23;13.88;;;4.30;1.00;;;;;;5094763;28;20028;-92
2021/01/17 07:47:45;;;;;;;17.05;13.60;;;4.00;1.00;;;;;;5094952;28;20032;-92
2021/01/17 07:50:12;;;;;;;21.77;14.55;;;4.30;1.00;;;;;;5095228;28;20066;-93
2021/01/17 07:52:43;;;;;;;18.42;13.60;;;4.00;1.00;;;;;;5094993;28;20047;-92
2021/01/17 07:55:12;;;;;;;18.88;13.75;;;4.30;1.00;;;;;;5096307;28;20056;-92
2021/01/17 07:57:37;;;;;;;21.90;14.57;;;4.20;1.00;;;;;;5115042;28;20027;-92
2021/01/17 08:00:07;;;;;;;20.33;14.98;;;4.50;1.00;;;;;;5115036;28;20080;-92
2021/01/17 08:02:35;;;;;;;25.92;16.50;;;3.90;1.00;;;;;;5114792;28;20027;-92
2021/01/17 08:05:02;;;;;;;25.67;17.52;;;4.10;1.00;;;;;;5115057;28;20027;-92
2021/01/17 08:07:33;;;;;;;26.73;19.25;;;3.90;1.00;;;;;;5102649;28;20031;-92
2021/01/17 08:09:59;;;;;;;26.63;18.15;;;4.40;1.00;;;;;;5094256;28;20032;-92
2021/01/17 08:12:33;;;;;;;30.08;18.25;;;4.00;1.00;;;;;;5094563;28;20031;-92
2021/01/17 08:15:18;;;;;;;27.35;19.17;;;4.20;1.00;;;;;;5094569;28;20024;-92
2021/01/17 08:17:45;;;;;;;27.00;18.55;;;4.20;1.00;;;;;;5094468;28;20427;-92
2021/01/17 08:20:19;;;;;;;27.88;18.63;;;4.20;1.00;;;;;;5094533;28;20032;-92
2021/01/17 08:22:45;;;;;;;24.75;17.52;;;4.40;1.00;;;;;;5106419;28;20031;-92
2021/01/17 08:25:13;;;;;;;21.83;15.98;;;4.40;1.00;;;;;;5114498;28;20042;-92
2021/01/17 08:27:45;;;;;;;25.02;15.85;;;4.40;1.00;;;;;;5114573;28;20019;-92
2021/01/17 08:30:22;;;;;;;22.08;15.73;;;4.40;1.00;;;;;;5101698;28;20085;-91
2021/01/17 08:32:53;;;;;;;20.48;15.43;;;4.30;1.00;;;;;;5094228;28;20024;-92
2021/01/17 08:35:19;;;;;;;20.77;14.73;;;4.40;1.00;;;;;;5094104;28;20401;-92
2021/01/17 08:37:46;;;;;;;24.52;16.73;;;4.40;1.00;;;;;;5094198;28;20023;-92
2021/01/17 08:40:19;;;;;;;22.45;15.98;;;5.00;1.00;;;;;;5093995;28;20051;-92
2021/01/17 08:42:52;;;;;;;25.00;18.45;;;4.70;1.00;;;;;;5093936;28;20024;-92
2021/01/17 08:45:21;;;;;;;29.50;23.08;;;4.80;1.00;;;;;;5093875;28;20115;-92
2021/01/17 08:48:15;;;;;;;23.05;16.75;;;4.80;1.00;;;;;;5094064;28;20053;-92
2021/01/17 08:50:43;;;;;;;35.67;24.55;;;4.70;1.00;;;;;;5088632;28;20063;-91
2021/01/17 08:53:12;;;;;;;105.60;70.13;;;4.70;1.00;;;;;;5105628;28;20065;-90
2021/01/17 08:55:40;;;;;;;46.80;34.25;;;4.60;1.00;;;;;;5121140;27;20569;-92
2021/01/17 08:58:06;;;;;;;33.88;23.48;;;4.80;1.00;;;;;;5134549;27;20027;-92
2021/01/17 09:00:51;;;;;;;35.38;24.58;;;4.70;1.00;;;;;;5134589;27;20033;-91
2021/01/17 09:03:30;;;;;;;39.45;27.15;;;4.50;1.00;;;;;;5134543;27;20024;-93
2021/01/17 09:06:01;;;;;;;36.08;25.55;;;4.60;1.00;;;;;;5131000;27;20106;-92
2021/01/17 09:08:32;;;;;;;36.15;26.48;;;4.40;1.00;;;;;;5113899;28;20030;-91
2021/01/17 09:10:58;;;;;;;31.42;21.55;;;4.50;1.00;;;;;;5113821;28;20619;-91
2021/01/17 09:13:26;;;;;;;31.92;22.50;;;4.60;1.00;;;;;;5113689;28;20023;-92
2021/01/17 09:15:58;;;;;;;32.63;21.92;;;4.60;1.00;;;;;;5113917;28;20028;-92
2021/01/17 09:18:28;;;;;;;32.70;22.27;;;4.60;1.00;;;;;;5113583;28;20023;-91
2021/01/17 09:20:56;;;;;;;31.20;21.45;;;4.60;1.00;;;;;;5105749;28;20030;-92
2021/01/17 09:23:23;;;;;;;34.38;21.17;;;4.80;1.00;;;;;;5093698;28;20032;-91
2021/01/17 09:26:00;;;;;;;32.40;21.42;;;4.70;1.00;;;;;;5092928;28;20543;-91
2021/01/17 09:28:27;;;;;;;31.40;21.33;;;4.50;1.00;;;;;;5092718;28;20062;-91
2021/01/17 09:30:56;;;;;;;30.23;21.15;;;4.60;1.00;;;;;;5093167;28;20024;-91
2021/01/17 09:33:22;;;;;;;29.63;20.67;;;4.60;1.00;;;;;;5092779;28;20028;-91
2021/01/17 09:35:49;;;;;;;33.97;21.38;;;4.70;1.00;;;;;;5092378;28;20024;-91
2021/01/17 09:38:17;;;;;;;32.08;22.02;;;4.80;1.00;;;;;;5111957;27;20517;-90
2021/01/17 09:40:46;;;;;;;30.80;21.42;;;4.80;1.00;;;;;;5112769;28;20044;-92
2021/01/17 09:43:12;;;;;;;35.55;21.52;;;4.80;1.00;;;;;;5113254;28;20027;-91
2021/01/17 09:45:38;;;;;;;36.08;23.45;;;4.90;1.00;;;;;;5113346;28;20048;-91
2021/01/17 09:48:05;;;;;;;33.58;22.88;;;4.80;1.00;;;;;;5112923;28;20027;-91
2021/01/17 09:50:36;;;;;;;29.60;20.02;;;4.90;1.00;;;;;;5111664;28;20114;-92
2021/01/17 09:53:08;;;;;;;30.67;20.85;;;4.90;1.00;;;;;;5105552;28;20024;-93
2021/01/17 09:55:37;;;;;;;28.52;19.98;;;4.80;1.00;;;;;;5094199;28;20469;-94
2021/01/17 09:58:06;;;;;;;28.63;20.13;;;4.70;1.00;;;;;;5092895;28;20066;-93
2021/01/17 10:00:32;;;;;;;31.45;20.50;;;4.70;1.00;;;;;;5092342;28;20508;-92
2021/01/17 10:02:58;;;;;;;28.23;20.48;;;4.80;1.00;;;;;;5101681;28;20027;-91
2021/01/17 10:05:30;;;;;;;31.80;21.30;;;4.80;1.00;;;;;;5111965;28;20617;-93
2021/01/17 10:08:04;;;;;;;33.63;22.58;;;4.80;1.00;;;;;;5093246;28;20036;-92
2021/01/17 10:10:30;;;;;;;35.20;22.95;;;5.00;1.00;;;;;;5091129;28;20085;-88
2021/01/17 10:12:56;;;;;;;33.00;22.58;;;5.30;1.00;;;;;;5092463;28;20077;-88
2021/01/17 10:15:24;;;;;;;35.53;23.27;;;5.40;1.00;;;;;;5090203;28;20024;-89
2021/01/17 10:17:50;;;;;;;34.00;23.35;;;5.50;1.00;;;;;;5091494;28;20025;-90
2021/01/17 10:20:27;;;;;;;38.55;24.90;;;5.60;1.00;;;;;;5091564;28;20024;-88
2021/01/17 10:22:56;;;;;;;34.10;23.67;;;5.70;1.00;;;;;;5111452;28;20439;-90
2021/01/17 10:25:22;;;;;;;34.58;23.70;;;5.50;1.00;;;;;;5113559;28;20039;-91
2021/01/17 10:27:48;;;;;;;35.03;23.33;;;5.40;1.00;;;;;;5111652;28;20023;-90
2021/01/17 10:30:20;;;;;;;35.53;24.58;;;5.30;1.00;;;;;;5091232;28;20027;-90
2021/01/17 10:32:48;;;;;;;38.90;24.63;;;5.50;1.00;;;;;;5091493;28;20074;-89
2021/01/17 10:35:21;;;;;;;34.88;24.33;;;5.50;1.00;;;;;;5091097;28;20031;-89
2021/01/17 10:37:50;;;;;;;32.47;22.42;;;5.50;1.00;;;;;;5097453;28;20047;-89
2021/01/17 10:40:23;;;;;;;30.83;22.50;;;5.60;1.00;;;;;;5111407;28;20079;-89
2021/01/17 10:42:52;;;;;;;33.85;24.30;;;5.70;1.00;;;;;;5112791;28;20111;-89
2021/01/17 10:45:19;;;;;;;34.20;23.38;;;5.70;1.00;;;;;;5111609;28;20028;-89
2021/01/17 10:47:58;;;;;;;32.97;23.45;;;5.60;1.00;;;;;;5112094;28;20399;-90
2021/01/17 10:50:26;;;;;;;30.00;20.90;;;5.50;1.00;;;;;;5111554;28;20028;-89
2021/01/17 10:53:12;;;;;;;29.95;21.35;;;5.50;1.00;;;;;;5090476;28;20031;-89
2021/01/17 10:55:39;;;;;;;28.63;21.48;;;5.50;1.00;;;;;;5097402;28;20023;-91
2021/01/17 10:58:07;;;;;;;28.80;21.33;;;5.70;1.00;;;;;;5111901;28;20057;-92
2021/01/17 11:00:32;;;;;;;30.85;21.42;;;6.00;1.00;;;;;;5111269;28;20031;-91
2021/01/17 11:03:03;;;;;;;28.77;21.88;;;6.10;1.00;;;;;;5111861;28;20053;-90
2021/01/17 11:05:29;;;;;;;31.00;19.85;;;6.20;1.00;;;;;;5108667;28;20023;-91
2021/01/17 11:07:55;;;;;;;30.00;21.95;;;6.40;1.00;;;;;;5094843;28;20032;-91
2021/01/17 11:10:21;;;;;;;34.45;23.45;;;6.30;1.00;;;;;;5091050;28;20123;-92
2021/01/17 11:12:47;;;;;;;33.13;22.92;;;6.20;1.00;;;;;;5091254;28;20031;-93
2021/01/17 11:15:18;;;;;;;29.55;21.17;;;6.20;1.00;;;;;;5090755;28;20024;-92
2021/01/17 11:17:57;;;;;;;34.83;21.70;;;6.10;1.00;;;;;;5090888;28;20020;-90
2021/01/17 11:20:31;;;;;;;29.77;21.17;;;6.10;1.00;;;;;;5091214;28;20015;-89
2021/01/17 11:23:07;;;;;;;26.98;19.77;;;6.40;1.00;;;;;;5092181;28;20027;-91
2021/01/17 11:25:34;;;;;;;26.60;18.67;;;6.20;1.00;;;;;;5090447;28;20478;-89
2021/01/17 11:28:03;;;;;;;29.48;20.35;;;6.10;1.00;;;;;;5090895;28;20077;-90
2021/01/17 11:30:30;;;;;;;28.33;20.77;;;6.20;1.00;;;;;;5092168;28;20497;-89
2021/01/17 11:33:12;;;;;;;30.60;22.40;;;6.60;1.00;;;;;;5093953;28;20031;-89
2021/01/17 11:35:40;;;;;;;26.75;20.58;;;6.40;1.00;;;;;;5094302;28;20020;-89
2021/01/17 11:38:07;;;;;;;26.65;18.88;;;6.40;1.00;;;;;;5097594;28;20046;-89
2021/01/17 11:40:33;;;;;;;27.73;19.40;;;6.50;1.00;;;;;;5094193;28;20068;-90
2021/01/17 11:43:10;;;;;;;27.25;20.42;;;6.70;1.00;;;;;;5094569;28;20059;-89
2021/01/17 11:45:45;;;;;;;29.67;20.67;;;7.00;1.00;;;;;;5093585;28;20123;-89
2021/01/17 11:48:11;;;;;;;25.98;20.13;;;7.40;1.00;;;;;;5093947;28;20032;-89
2021/01/17 11:50:46;;;;;;;25.00;19.63;;;7.60;1.00;;;;;;5093771;28;20032;-90
2021/01/17 11:53:12;;;;;;;28.13;20.15;;;7.50;1.00;;;;;;5094468;28;20031;-90
2021/01/17 11:55:39;;;;;;;27.77;21.05;;;7.50;1.00;;;;;;5100078;28;20028;-90
2021/01/17 11:58:12;;;;;;;29.60;21.50;;;7.20;1.00;;;;;;5114433;28;20043;-90
2021/01/17 12:01:04;;;;;;;27.55;20.70;;;7.00;1.00;;;;;;5115355;28;20030;-90
2021/01/17 12:03:40;;;;;;;31.10;22.77;;;6.60;1.00;;;;;;5112359;28;20043;-90
2021/01/17 12:06:05;;;;;;;31.08;23.50;;;6.50;1.00;;;;;;5111705;28;20484;-90
2021/01/17 12:08:50;;;;;;;41.92;27.75;;;6.50;1.00;;;;;;5113252;28;20030;-90
2021/01/17 12:11:34;;;;;;;39.00;28.52;;;6.60;1.00;;;;;;5115192;28;20106;-91
2021/01/17 12:14:02;;;;;;;38.25;28.65;;;6.60;1.00;;;;;;5113864;27;20149;-91
2021/01/17 12:16:31;;;;;;;38.55;27.10;;;6.70;1.00;;;;;;5114037;28;20023;-90
2021/01/17 12:18:57;;;;;;;39.35;27.05;;;6.20;1.00;;;;;;5114502;28;20022;-92
2021/01/17 12:21:28;;;;;;;35.75;25.40;;;6.60;1.00;;;;;;5113144;28;20031;-91
2021/01/17 12:23:55;;;;;;;35.30;25.08;;;6.10;1.00;;;;;;5114616;28;20424;-91
2021/01/17 12:26:21;;;;;;;36.65;25.58;;;6.30;1.00;;;;;;5114799;28;20497;-93
2021/01/17 12:28:47;;;;;;;35.33;24.35;;;6.40;1.00;;;;;;5116811;28;20023;-96
2021/01/17 12:31:18;;;;;;;34.65;25.48;;;6.40;1.00;;;;;;5114928;28;20023;-95
2021/01/17 12:33:44;;;;;;;31.65;23.55;;;6.40;1.00;;;;;;5115075;28;20024;-96
2021/01/17 12:36:12;;;;;;;32.92;24.98;;;6.80;1.00;;;;;;5114892;28;20016;-96
2021/01/17 12:38:38;;;;;;;37.90;25.88;;;7.10;1.00;;;;;;5114840;28;20024;-96
2021/01/17 12:41:08;;;;;;;41.67;28.05;;;6.80;1.00;;;;;;5114559;28;20050;-94
2021/01/17 12:43:34;;;;;;;38.15;26.30;;;6.70;1.00;;;;;;5115424;28;20031;-96
2021/01/17 12:45:59;;;;;;;40.05;27.38;;;6.70;1.00;;;;;;5114990;28;20019;-96
2021/01/17 12:48:25;;;;;;;42.17;28.50;;;6.60;1.00;;;;;;5114627;28;20039;-96
2021/01/17 12:50:51;;;;;;;48.10;31.73;;;6.80;1.00;;;;;;5114719;28;20024;-96
2021/01/17 12:53:16;;;;;;;42.10;29.17;;;6.70;1.00;;;;;;5114641;28;20397;-96
2021/01/17 12:55:48;;;;;;;38.78;27.58;;;7.00;1.00;;;;;;5114462;28;20024;-96
2021/01/17 12:58:17;;;;;;;37.85;28.58;;;6.80;1.00;;;;;;5114550;28;20077;-96
2021/01/17 13:00:43;;;;;;;39.80;28.67;;;6.30;1.00;;;;;;5114760;28;20047;-96